sensor_id;sensor_type;location;lat;lon;timestamp;noise_LAeq;noise_LA_min;noise_LA_max;noise_LA01;noise_LA95
69611;Laerm;56817;52.302;4.844;2022-12-07T00:00:04;43.35;40.18;46.72;;
69611;Laerm;56817;52.302;4.844;2022-12-07T00:00:15;43.48;40.77;46.13;;
69611;Laerm;56817;52.302;4.844;2022-12-07T00:00:25;45.66;42.26;53.44;;
69611;Laerm;56817;52.302;4.844;2022-12-07T00:00:35;42.70;39.89;44.77;;
69611;Laerm;56817;52.302;4.844;2022-12-07T00:00:46;44.53;39.04;49.20;;
69611;Laerm;56817;52.302;4.844;2022-12-07T00:01:28;43.36;38.12;56.49;;
69611;Laerm;56817;52.302;4.844;2022-12-07T00:01:39;47.23;41.86;52.09;;
69611;Laerm;56817;52.302;4.844;2022-12-07T00:01:41;43.98;40.68;47.35;;
69611;Laerm;56817;52.302;4.844;2022-12-07T00:01:49;42.98;38.46;46.08;;
69611;Laerm;56817;52.302;4.844;2022-12-07T00:02:00;42.32;39.55;48.10;;
69611;Laerm;56817;52.302;4.844;2022-12-07T00:02:10;41.45;38.09;46.45;;
69611;Laerm;56817;52.302;4.844;2022-12-07T00:02:20;41.73;38.77;46.20;;
69611;Laerm;56817;52.302;4.844;2022-12-07T00:02:30;46.66;41.80;50.24;;
69611;Laerm;56817;52.302;4.844;2022-12-07T00:02:41;48.05;43.26;50.88;;
69611;Laerm;56817;52.302;4.844;2022-12-07T00:02:51;47.34;43.74;51.82;;
69611;Laerm;56817;52.302;4.844;2022-12-07T00:03:01;42.86;39.86;46.86;;
69611;Laerm;56817;52.302;4.844;2022-12-07T00:03:11;40.24;36.49;45.61;;
69611;Laerm;56817;52.302;4.844;2022-12-07T00:03:22;37.81;35.18;44.89;;
69611;Laerm;56817;52.302;4.844;2022-12-07T00:03:32;38.01;35.24;43.37;;
69611;Laerm;56817;52.302;4.844;2022-12-07T00:03:43;40.58;37.06;44.42;;
69611;Laerm;56817;52.302;4.844;2022-12-07T00:03:55;39.79;35.90;45.16;;
69611;Laerm;56817;52.302;4.844;2022-12-07T00:04:14;39.42;36.25;45.27;;
69611;Laerm;56817;52.302;4.844;2022-12-07T00:04:25;42.46;37.99;47.00;;
69611;Laerm;56817;52.302;4.844;2022-12-07T00:04:35;39.33;36.61;43.72;;
69611;Laerm;56817;52.302;4.844;2022-12-07T00:04:46;40.72;37.98;44.34;;
69611;Laerm;56817;52.302;4.844;2022-12-07T00:04:58;42.89;39.42;46.45;;
69611;Laerm;56817;52.302;4.844;2022-12-07T00:05:08;41.97;39.45;45.76;;
69611;Laerm;56817;52.302;4.844;2022-12-07T00:05:19;39.34;35.18;43.59;;
69611;Laerm;56817;52.302;4.844;2022-12-07T00:05:29;36.51;34.56;40.66;;
69611;Laerm;56817;52.302;4.844;2022-12-07T00:05:39;37.04;35.01;43.88;;
69611;Laerm;56817;52.302;4.844;2022-12-07T00:05:49;40.56;35.68;45.93;;
69611;Laerm;56817;52.302;4.844;2022-12-07T00:06:00;43.68;40.29;47.17;;
69611;Laerm;56817;52.302;4.844;2022-12-07T00:06:12;41.32;37.07;48.46;;
69611;Laerm;56817;52.302;4.844;2022-12-07T00:06:23;39.63;37.22;46.11;;
69611;Laerm;56817;52.302;4.844;2022-12-07T00:06:34;41.39;38.89;47.63;;
69611;Laerm;56817;52.302;4.844;2022-12-07T00:06:45;40.95;38.37;45.20;;
69611;Laerm;56817;52.302;4.844;2022-12-07T00:06:56;40.29;37.53;44.60;;
69611;Laerm;56817;52.302;4.844;2022-12-07T00:07:06;41.22;37.93;44.87;;
69611;Laerm;56817;52.302;4.844;2022-12-07T00:07:16;41.18;38.91;44.85;;
69611;Laerm;56817;52.302;4.844;2022-12-07T00:07:27;40.34;36.24;44.43;;
69611;Laerm;56817;52.302;4.844;2022-12-07T00:07:37;40.24;36.82;43.46;;
69611;Laerm;56817;52.302;4.844;2022-12-07T00:07:47;42.98;39.37;47.13;;
69611;Laerm;56817;52.302;4.844;2022-12-07T00:07:59;41.19;38.58;44.76;;
69611;Laerm;56817;52.302;4.844;2022-12-07T00:08:09;41.79;38.15;45.98;;
69611;Laerm;56817;52.302;4.844;2022-12-07T00:08:19;43.65;40.05;46.34;;
69611;Laerm;56817;52.302;4.844;2022-12-07T00:08:30;43.92;39.31;47.22;;
69611;Laerm;56817;52.302;4.844;2022-12-07T00:08:40;40.85;38.11;44.87;;
69611;Laerm;56817;52.302;4.844;2022-12-07T00:08:50;43.40;39.53;46.55;;
69611;Laerm;56817;52.302;4.844;2022-12-07T00:09:01;42.06;39.08;47.25;;
69611;Laerm;56817;52.302;4.844;2022-12-07T00:09:12;42.70;39.72;47.26;;
69611;Laerm;56817;52.302;4.844;2022-12-07T00:09:23;43.83;41.13;47.83;;
69611;Laerm;56817;52.302;4.844;2022-12-07T00:09:33;44.58;42.03;48.04;;
69611;Laerm;56817;52.302;4.844;2022-12-07T00:09:44;50.41;40.13;57.98;;
69611;Laerm;56817;52.302;4.844;2022-12-07T00:09:54;42.65;38.05;45.99;;
69611;Laerm;56817;52.302;4.844;2022-12-07T00:10:04;41.78;38.61;48.01;;
69611;Laerm;56817;52.302;4.844;2022-12-07T00:10:15;42.69;37.81;47.91;;
69611;Laerm;56817;52.302;4.844;2022-12-07T00:10:25;41.16;37.23;56.95;;
69611;Laerm;56817;52.302;4.844;2022-12-07T00:10:35;44.17;38.45;49.30;;
69611;Laerm;56817;52.302;4.844;2022-12-07T00:10:46;43.12;40.02;47.27;;
69611;Laerm;56817;52.302;4.844;2022-12-07T00:11:00;42.31;38.51;47.23;;
69611;Laerm;56817;52.302;4.844;2022-12-07T00:11:21;44.78;39.41;48.42;;
69611;Laerm;56817;52.302;4.844;2022-12-07T00:11:32;43.60;40.60;47.63;;
69611;Laerm;56817;52.302;4.844;2022-12-07T00:11:43;44.72;41.60;47.57;;
69611;Laerm;56817;52.302;4.844;2022-12-07T00:11:53;44.01;39.49;48.12;;
69611;Laerm;56817;52.302;4.844;2022-12-07T00:12:03;38.66;35.38;47.95;;
69611;Laerm;56817;52.302;4.844;2022-12-07T00:12:14;38.87;35.97;44.01;;
69611;Laerm;56817;52.302;4.844;2022-12-07T00:12:24;42.23;38.14;45.12;;
69611;Laerm;56817;52.302;4.844;2022-12-07T00:12:34;45.35;42.69;48.00;;
69611;Laerm;56817;52.302;4.844;2022-12-07T00:12:44;45.79;41.54;48.46;;
69611;Laerm;56817;52.302;4.844;2022-12-07T00:12:55;42.93;39.49;47.71;;
69611;Laerm;56817;52.302;4.844;2022-12-07T00:13:05;43.33;40.24;46.64;;
69611;Laerm;56817;52.302;4.844;2022-12-07T00:13:15;43.26;39.79;48.23;;
69611;Laerm;56817;52.302;4.844;2022-12-07T00:13:25;40.22;35.49;45.94;;
69611;Laerm;56817;52.302;4.844;2022-12-07T00:13:36;37.46;33.29;47.20;;
69611;Laerm;56817;52.302;4.844;2022-12-07T00:13:47;35.60;32.97;45.21;;
69611;Laerm;56817;52.302;4.844;2022-12-07T00:13:59;36.04;32.42;44.91;;
69611;Laerm;56817;52.302;4.844;2022-12-07T00:14:13;37.30;33.42;47.07;;
69611;Laerm;56817;52.302;4.844;2022-12-07T00:14:24;38.16;34.07;45.74;;
69611;Laerm;56817;52.302;4.844;2022-12-07T00:14:34;42.50;36.85;50.37;;
69611;Laerm;56817;52.302;4.844;2022-12-07T00:14:45;46.43;43.71;49.97;;
69611;Laerm;56817;52.302;4.844;2022-12-07T00:14:56;45.37;42.00;49.86;;
69611;Laerm;56817;52.302;4.844;2022-12-07T00:15:06;46.48;39.35;52.08;;
69611;Laerm;56817;52.302;4.844;2022-12-07T00:15:17;45.76;39.89;60.55;;
69611;Laerm;56817;52.302;4.844;2022-12-07T00:15:27;50.81;40.64;64.30;;
69611;Laerm;56817;52.302;4.844;2022-12-07T00:15:37;53.22;44.42;62.87;;
69611;Laerm;56817;52.302;4.844;2022-12-07T00:15:48;51.35;43.01;65.49;;
69611;Laerm;56817;52.302;4.844;2022-12-07T00:16:01;53.01;43.59;69.43;;
69611;Laerm;56817;52.302;4.844;2022-12-07T00:16:13;53.44;42.27;76.59;;
69611;Laerm;56817;52.302;4.844;2022-12-07T00:16:25;50.08;44.06;62.86;;
69611;Laerm;56817;52.302;4.844;2022-12-07T00:16:36;46.64;40.78;53.32;;
69611;Laerm;56817;52.302;4.844;2022-12-07T00:16:48;43.57;39.33;52.64;;
69611;Laerm;56817;52.302;4.844;2022-12-07T00:16:58;44.02;39.57;50.40;;
69611;Laerm;56817;52.302;4.844;2022-12-07T00:17:08;41.59;36.96;49.42;;
69611;Laerm;56817;52.302;4.844;2022-12-07T00:17:18;42.29;37.88;59.20;;
69611;Laerm;56817;52.302;4.844;2022-12-07T00:17:29;46.71;40.44;59.06;;
69611;Laerm;56817;52.302;4.844;2022-12-07T00:17:39;48.52;43.28;58.82;;
69611;Laerm;56817;52.302;4.844;2022-12-07T00:17:49;47.60;43.54;52.01;;
69611;Laerm;56817;52.302;4.844;2022-12-07T00:18:00;45.75;41.27;57.35;;
69611;Laerm;56817;52.302;4.844;2022-12-07T00:18:10;48.44;40.41;62.44;;
69611;Laerm;56817;52.302;4.844;2022-12-07T00:18:20;49.77;42.30;61.06;;
69611;Laerm;56817;52.302;4.844;2022-12-07T00:18:30;48.96;39.15;63.94;;
69611;Laerm;56817;52.302;4.844;2022-12-07T00:18:41;49.59;39.26;66.71;;
69611;Laerm;56817;52.302;4.844;2022-12-07T00:18:52;50.52;42.07;61.92;;
69611;Laerm;56817;52.302;4.844;2022-12-07T00:19:02;49.07;41.85;59.17;;
69611;Laerm;56817;52.302;4.844;2022-12-07T00:19:13;47.66;40.46;57.40;;
69611;Laerm;56817;52.302;4.844;2022-12-07T00:19:24;47.79;39.10;60.06;;
69611;Laerm;56817;52.302;4.844;2022-12-07T00:19:34;47.05;39.84;61.15;;
69611;Laerm;56817;52.302;4.844;2022-12-07T00:19:44;47.07;38.11;64.53;;
69611;Laerm;56817;52.302;4.844;2022-12-07T00:19:54;49.98;39.74;70.01;;
69611;Laerm;56817;52.302;4.844;2022-12-07T00:20:05;48.17;38.72;64.41;;
69611;Laerm;56817;52.302;4.844;2022-12-07T00:20:15;46.33;37.90;63.92;;
69611;Laerm;56817;52.302;4.844;2022-12-07T00:20:26;41.14;36.19;51.69;;
69611;Laerm;56817;52.302;4.844;2022-12-07T00:20:36;40.93;36.59;51.55;;
69611;Laerm;56817;52.302;4.844;2022-12-07T00:20:46;43.92;37.24;56.12;;
69611;Laerm;56817;52.302;4.844;2022-12-07T00:21:16;46.03;39.45;51.24;;
69611;Laerm;56817;52.302;4.844;2022-12-07T00:21:27;46.30;38.88;52.92;;
69611;Laerm;56817;52.302;4.844;2022-12-07T00:21:37;46.83;42.25;50.28;;
69611;Laerm;56817;52.302;4.844;2022-12-07T00:21:48;45.31;41.70;49.71;;
69611;Laerm;56817;52.302;4.844;2022-12-07T00:21:58;44.29;39.03;49.52;;
69611;Laerm;56817;52.302;4.844;2022-12-07T00:22:09;40.51;37.20;46.51;;
69611;Laerm;56817;52.302;4.844;2022-12-07T00:22:19;43.00;39.16;47.10;;
69611;Laerm;56817;52.302;4.844;2022-12-07T00:22:29;45.02;42.31;47.86;;
69611;Laerm;56817;52.302;4.844;2022-12-07T00:22:39;42.10;39.09;47.98;;
69611;Laerm;56817;52.302;4.844;2022-12-07T00:22:50;45.00;39.78;51.29;;
69611;Laerm;56817;52.302;4.844;2022-12-07T00:23:01;42.57;38.83;46.93;;
69611;Laerm;56817;52.302;4.844;2022-12-07T00:23:11;42.32;38.23;47.14;;
69611;Laerm;56817;52.302;4.844;2022-12-07T00:23:21;46.96;43.84;49.62;;
69611;Laerm;56817;52.302;4.844;2022-12-07T00:23:32;46.32;39.78;49.27;;
69611;Laerm;56817;52.302;4.844;2022-12-07T00:23:43;41.66;38.10;54.44;;
69611;Laerm;56817;52.302;4.844;2022-12-07T00:23:54;42.50;36.38;48.10;;
69611;Laerm;56817;52.302;4.844;2022-12-07T00:24:05;43.10;38.21;46.88;;
69611;Laerm;56817;52.302;4.844;2022-12-07T00:24:16;45.14;42.02;49.41;;
69611;Laerm;56817;52.302;4.844;2022-12-07T00:24:26;39.91;35.45;46.08;;
69611;Laerm;56817;52.302;4.844;2022-12-07T00:24:36;37.92;35.66;42.58;;
69611;Laerm;56817;52.302;4.844;2022-12-07T00:24:46;41.13;35.55;48.43;;
69611;Laerm;56817;52.302;4.844;2022-12-07T00:24:57;43.77;40.32;47.81;;
69611;Laerm;56817;52.302;4.844;2022-12-07T00:25:07;44.44;41.22;48.01;;
69611;Laerm;56817;52.302;4.844;2022-12-07T00:25:17;40.80;37.30;45.42;;
69611;Laerm;56817;52.302;4.844;2022-12-07T00:25:28;40.52;37.44;46.56;;
69611;Laerm;56817;52.302;4.844;2022-12-07T00:25:39;42.02;38.20;49.19;;
69611;Laerm;56817;52.302;4.844;2022-12-07T00:25:50;41.71;36.98;46.41;;
69611;Laerm;56817;52.302;4.844;2022-12-07T00:26:04;40.72;37.05;47.11;;
69611;Laerm;56817;52.302;4.844;2022-12-07T00:26:16;41.53;37.38;45.00;;
69611;Laerm;56817;52.302;4.844;2022-12-07T00:26:30;45.06;37.00;50.04;;
69611;Laerm;56817;52.302;4.844;2022-12-07T00:26:41;44.41;37.72;47.98;;
69611;Laerm;56817;52.302;4.844;2022-12-07T00:26:52;41.22;37.25;46.19;;
69611;Laerm;56817;52.302;4.844;2022-12-07T00:27:02;39.45;35.74;45.94;;
69611;Laerm;56817;52.302;4.844;2022-12-07T00:27:12;39.42;36.07;44.94;;
69611;Laerm;56817;52.302;4.844;2022-12-07T00:27:22;39.00;36.85;42.86;;
69611;Laerm;56817;52.302;4.844;2022-12-07T00:27:33;47.21;38.78;56.62;;
69611;Laerm;56817;52.302;4.844;2022-12-07T00:27:43;46.29;40.40;50.04;;
69611;Laerm;56817;52.302;4.844;2022-12-07T00:27:54;43.59;37.54;50.09;;
69611;Laerm;56817;52.302;4.844;2022-12-07T00:28:07;44.49;40.64;53.07;;
69611;Laerm;56817;52.302;4.844;2022-12-07T00:28:19;46.11;42.60;49.39;;
69611;Laerm;56817;52.302;4.844;2022-12-07T00:28:29;41.90;38.08;47.73;;
69611;Laerm;56817;52.302;4.844;2022-12-07T00:28:40;39.94;36.61;54.92;;
69611;Laerm;56817;52.302;4.844;2022-12-07T00:28:51;44.47;38.12;48.30;;
69611;Laerm;56817;52.302;4.844;2022-12-07T00:29:03;41.58;38.15;47.28;;
69611;Laerm;56817;52.302;4.844;2022-12-07T00:29:18;45.05;38.37;51.68;;
69611;Laerm;56817;52.302;4.844;2022-12-07T00:29:28;45.13;37.87;50.61;;
69611;Laerm;56817;52.302;4.844;2022-12-07T00:29:39;45.73;40.34;49.68;;
69611;Laerm;56817;52.302;4.844;2022-12-07T00:29:49;41.87;38.30;47.17;;
69611;Laerm;56817;52.302;4.844;2022-12-07T00:29:59;43.18;38.98;46.90;;
69611;Laerm;56817;52.302;4.844;2022-12-07T00:30:10;41.26;38.46;51.20;;
69611;Laerm;56817;52.302;4.844;2022-12-07T00:30:20;42.04;38.56;45.50;;
69611;Laerm;56817;52.302;4.844;2022-12-07T00:30:30;45.73;39.96;52.04;;
69611;Laerm;56817;52.302;4.844;2022-12-07T00:30:41;43.41;39.93;47.70;;
69611;Laerm;56817;52.302;4.844;2022-12-07T00:30:51;44.70;40.84;49.27;;
69611;Laerm;56817;52.302;4.844;2022-12-07T00:31:08;43.19;40.94;45.67;;
69611;Laerm;56817;52.302;4.844;2022-12-07T00:31:20;43.60;39.21;48.11;;
69611;Laerm;56817;52.302;4.844;2022-12-07T00:31:32;41.29;37.01;45.81;;
69611;Laerm;56817;52.302;4.844;2022-12-07T00:31:43;41.71;35.84;48.56;;
69611;Laerm;56817;52.302;4.844;2022-12-07T00:31:54;38.77;36.61;42.55;;
69611;Laerm;56817;52.302;4.844;2022-12-07T00:32:04;39.57;36.98;42.74;;
69611;Laerm;56817;52.302;4.844;2022-12-07T00:32:14;43.99;39.95;47.24;;
69611;Laerm;56817;52.302;4.844;2022-12-07T00:32:24;45.48;40.47;51.35;;
69611;Laerm;56817;52.302;4.844;2022-12-07T00:32:35;40.18;36.82;45.49;;
69611;Laerm;56817;52.302;4.844;2022-12-07T00:32:45;40.13;37.36;44.59;;
69611;Laerm;56817;52.302;4.844;2022-12-07T00:32:55;40.81;37.81;44.28;;
69611;Laerm;56817;52.302;4.844;2022-12-07T00:33:05;41.10;37.09;45.47;;
69611;Laerm;56817;52.302;4.844;2022-12-07T00:33:16;40.95;37.74;47.60;;
69611;Laerm;56817;52.302;4.844;2022-12-07T00:33:26;39.28;35.35;44.97;;
69611;Laerm;56817;52.302;4.844;2022-12-07T00:33:38;37.67;34.84;45.62;;
69611;Laerm;56817;52.302;4.844;2022-12-07T00:33:48;37.81;35.92;43.92;;
69611;Laerm;56817;52.302;4.844;2022-12-07T00:33:59;40.06;36.83;47.30;;
69611;Laerm;56817;52.302;4.844;2022-12-07T00:34:12;45.52;42.40;49.08;;
69611;Laerm;56817;52.302;4.844;2022-12-07T00:34:22;44.79;38.95;49.32;;
69611;Laerm;56817;52.302;4.844;2022-12-07T00:34:32;42.20;38.71;46.50;;
69611;Laerm;56817;52.302;4.844;2022-12-07T00:34:43;41.32;37.67;45.85;;
69611;Laerm;56817;52.302;4.844;2022-12-07T00:34:53;39.43;36.20;46.31;;
69611;Laerm;56817;52.302;4.844;2022-12-07T00:35:03;41.49;36.79;53.90;;
69611;Laerm;56817;52.302;4.844;2022-12-07T00:35:14;42.45;38.33;47.77;;
69611;Laerm;56817;52.302;4.844;2022-12-07T00:35:24;45.73;43.25;48.09;;
69611;Laerm;56817;52.302;4.844;2022-12-07T00:35:34;43.44;39.09;47.80;;
69611;Laerm;56817;52.302;4.844;2022-12-07T00:35:44;41.30;37.48;44.98;;
69611;Laerm;56817;52.302;4.844;2022-12-07T00:35:55;43.33;38.19;48.35;;
69611;Laerm;56817;52.302;4.844;2022-12-07T00:36:07;43.91;39.29;47.13;;
69611;Laerm;56817;52.302;4.844;2022-12-07T00:36:20;42.05;38.68;45.19;;
69611;Laerm;56817;52.302;4.844;2022-12-07T00:36:31;40.29;35.65;46.72;;
69611;Laerm;56817;52.302;4.844;2022-12-07T00:36:41;37.79;35.20;43.04;;
69611;Laerm;56817;52.302;4.844;2022-12-07T00:36:51;39.76;35.89;44.66;;
69611;Laerm;56817;52.302;4.844;2022-12-07T00:37:01;44.85;40.60;49.53;;
69611;Laerm;56817;52.302;4.844;2022-12-07T00:37:12;43.33;37.71;50.56;;
69611;Laerm;56817;52.302;4.844;2022-12-07T00:37:23;39.36;34.85;44.30;;
69611;Laerm;56817;52.302;4.844;2022-12-07T00:37:33;37.23;34.80;41.79;;
69611;Laerm;56817;52.302;4.844;2022-12-07T00:37:43;38.56;36.10;43.68;;
69611;Laerm;56817;52.302;4.844;2022-12-07T00:37:53;44.92;37.97;49.02;;
69611;Laerm;56817;52.302;4.844;2022-12-07T00:38:04;39.57;36.22;43.54;;
69611;Laerm;56817;52.302;4.844;2022-12-07T00:38:14;44.90;39.88;48.32;;
69611;Laerm;56817;52.302;4.844;2022-12-07T00:38:24;40.93;36.74;47.35;;
69611;Laerm;56817;52.302;4.844;2022-12-07T00:38:37;39.63;37.27;44.23;;
69611;Laerm;56817;52.302;4.844;2022-12-07T00:38:47;43.76;38.82;50.73;;
69611;Laerm;56817;52.302;4.844;2022-12-07T00:38:58;45.41;42.28;49.36;;
69611;Laerm;56817;52.302;4.844;2022-12-07T00:39:09;42.90;38.87;48.55;;
69611;Laerm;56817;52.302;4.844;2022-12-07T00:39:19;40.37;37.98;43.04;;
69611;Laerm;56817;52.302;4.844;2022-12-07T00:39:30;48.74;37.46;66.72;;
69611;Laerm;56817;52.302;4.844;2022-12-07T00:39:40;44.86;38.71;49.46;;
69611;Laerm;56817;52.302;4.844;2022-12-07T00:39:50;41.47;38.31;46.01;;
69611;Laerm;56817;52.302;4.844;2022-12-07T00:40:01;40.92;38.83;43.98;;
69611;Laerm;56817;52.302;4.844;2022-12-07T00:40:11;44.60;39.17;48.94;;
69611;Laerm;56817;52.302;4.844;2022-12-07T00:40:21;45.53;41.98;49.10;;
69611;Laerm;56817;52.302;4.844;2022-12-07T00:40:31;43.80;40.24;48.11;;
69611;Laerm;56817;52.302;4.844;2022-12-07T00:40:42;44.92;39.80;49.59;;
69611;Laerm;56817;52.302;4.844;2022-12-07T00:40:56;42.20;39.55;44.99;;
69611;Laerm;56817;52.302;4.844;2022-12-07T00:41:10;41.57;37.98;45.42;;
69611;Laerm;56817;52.302;4.844;2022-12-07T00:41:22;44.04;39.26;49.09;;
69611;Laerm;56817;52.302;4.844;2022-12-07T00:41:33;41.74;38.44;45.88;;
69611;Laerm;56817;52.302;4.844;2022-12-07T00:41:43;42.73;39.20;46.92;;
69611;Laerm;56817;52.302;4.844;2022-12-07T00:41:53;40.77;38.22;45.81;;
69611;Laerm;56817;52.302;4.844;2022-12-07T00:42:03;46.05;38.25;55.11;;
69611;Laerm;56817;52.302;4.844;2022-12-07T00:42:14;43.57;39.38;48.83;;
69611;Laerm;56817;52.302;4.844;2022-12-07T00:42:24;45.72;41.42;49.76;;
69611;Laerm;56817;52.302;4.844;2022-12-07T00:42:34;42.20;39.18;48.17;;
69611;Laerm;56817;52.302;4.844;2022-12-07T00:42:44;44.17;39.01;47.48;;
69611;Laerm;56817;52.302;4.844;2022-12-07T00:42:55;43.26;40.11;47.97;;
69611;Laerm;56817;52.302;4.844;2022-12-07T00:43:05;40.53;35.67;48.66;;
69611;Laerm;56817;52.302;4.844;2022-12-07T00:43:15;39.44;34.14;54.97;;
69611;Laerm;56817;52.302;4.844;2022-12-07T00:43:26;41.49;34.72;53.56;;
69611;Laerm;56817;52.302;4.844;2022-12-07T00:43:36;41.21;35.19;53.53;;
69611;Laerm;56817;52.302;4.844;2022-12-07T00:43:47;42.34;38.51;46.55;;
69611;Laerm;56817;52.302;4.844;2022-12-07T00:43:57;42.17;35.10;47.86;;
69611;Laerm;56817;52.302;4.844;2022-12-07T00:44:08;38.63;34.93;44.68;;
69611;Laerm;56817;52.302;4.844;2022-12-07T00:44:18;44.40;39.74;48.23;;
69611;Laerm;56817;52.302;4.844;2022-12-07T00:44:28;39.35;35.90;46.87;;
69611;Laerm;56817;52.302;4.844;2022-12-07T00:44:38;39.16;35.79;43.43;;
69611;Laerm;56817;52.302;4.844;2022-12-07T00:44:49;37.90;34.76;42.59;;
69611;Laerm;56817;52.302;4.844;2022-12-07T00:44:59;41.60;37.65;47.02;;
69611;Laerm;56817;52.302;4.844;2022-12-07T00:45:09;42.05;38.77;45.59;;
69611;Laerm;56817;52.302;4.844;2022-12-07T00:45:20;40.33;36.92;47.79;;
69611;Laerm;56817;52.302;4.844;2022-12-07T00:45:30;41.09;37.54;46.28;;
69611;Laerm;56817;52.302;4.844;2022-12-07T00:45:40;38.31;35.86;46.51;;
69611;Laerm;56817;52.302;4.844;2022-12-07T00:45:51;39.25;36.52;44.15;;
69611;Laerm;56817;52.302;4.844;2022-12-07T00:46:01;43.62;38.61;49.98;;
69611;Laerm;56817;52.302;4.844;2022-12-07T00:46:12;46.29;41.98;50.15;;
69611;Laerm;56817;52.302;4.844;2022-12-07T00:46:22;42.71;38.93;47.14;;
69611;Laerm;56817;52.302;4.844;2022-12-07T00:46:33;44.75;39.33;50.68;;
69611;Laerm;56817;52.302;4.844;2022-12-07T00:46:43;43.45;37.97;49.66;;
69611;Laerm;56817;52.302;4.844;2022-12-07T00:46:55;42.56;38.24;46.53;;
69611;Laerm;56817;52.302;4.844;2022-12-07T00:47:05;41.31;37.47;46.21;;
69611;Laerm;56817;52.302;4.844;2022-12-07T00:47:16;41.34;35.77;47.56;;
69611;Laerm;56817;52.302;4.844;2022-12-07T00:47:26;39.40;36.45;43.45;;
69611;Laerm;56817;52.302;4.844;2022-12-07T00:47:36;40.18;37.19;42.87;;
69611;Laerm;56817;52.302;4.844;2022-12-07T00:47:46;38.69;35.73;43.11;;
69611;Laerm;56817;52.302;4.844;2022-12-07T00:47:57;41.55;37.38;47.26;;
69611;Laerm;56817;52.302;4.844;2022-12-07T00:48:07;44.44;40.53;49.66;;
69611;Laerm;56817;52.302;4.844;2022-12-07T00:48:17;40.28;35.42;49.73;;
69611;Laerm;56817;52.302;4.844;2022-12-07T00:48:27;37.41;34.39;44.65;;
69611;Laerm;56817;52.302;4.844;2022-12-07T00:48:38;36.22;33.30;45.00;;
69611;Laerm;56817;52.302;4.844;2022-12-07T00:48:49;36.38;33.15;42.79;;
69611;Laerm;56817;52.302;4.844;2022-12-07T00:48:59;36.99;33.83;44.27;;
69611;Laerm;56817;52.302;4.844;2022-12-07T00:49:10;38.53;34.91;50.59;;
69611;Laerm;56817;52.302;4.844;2022-12-07T00:49:20;41.66;37.18;46.20;;
69611;Laerm;56817;52.302;4.844;2022-12-07T00:49:30;42.13;36.80;59.78;;
69611;Laerm;56817;52.302;4.844;2022-12-07T00:49:40;40.13;36.60;46.46;;
69611;Laerm;56817;52.302;4.844;2022-12-07T00:49:51;39.73;36.98;46.05;;
69611;Laerm;56817;52.302;4.844;2022-12-07T00:50:01;43.88;39.19;47.26;;
69611;Laerm;56817;52.302;4.844;2022-12-07T00:50:11;43.41;39.22;46.91;;
69611;Laerm;56817;52.302;4.844;2022-12-07T00:50:21;39.66;36.86;44.30;;
69611;Laerm;56817;52.302;4.844;2022-12-07T00:50:32;38.95;36.57;42.88;;
69611;Laerm;56817;52.302;4.844;2022-12-07T00:50:42;40.46;36.67;45.57;;
69611;Laerm;56817;52.302;4.844;2022-12-07T00:50:52;41.82;39.06;44.66;;
69611;Laerm;56817;52.302;4.844;2022-12-07T00:51:03;42.71;38.60;46.26;;
69611;Laerm;56817;52.302;4.844;2022-12-07T00:51:14;44.45;39.33;49.22;;
69611;Laerm;56817;52.302;4.844;2022-12-07T00:51:24;42.12;36.47;48.55;;
69611;Laerm;56817;52.302;4.844;2022-12-07T00:51:35;39.52;36.12;44.90;;
69611;Laerm;56817;52.302;4.844;2022-12-07T00:51:47;40.86;37.13;47.57;;
69611;Laerm;56817;52.302;4.844;2022-12-07T00:51:57;42.02;35.15;48.75;;
69611;Laerm;56817;52.302;4.844;2022-12-07T00:52:07;37.96;35.42;43.63;;
69611;Laerm;56817;52.302;4.844;2022-12-07T00:52:18;38.68;35.80;44.14;;
69611;Laerm;56817;52.302;4.844;2022-12-07T00:52:28;44.32;39.15;50.05;;
69611;Laerm;56817;52.302;4.844;2022-12-07T00:52:38;36.83;34.53;42.60;;
69611;Laerm;56817;52.302;4.844;2022-12-07T00:52:48;36.67;34.09;42.72;;
69611;Laerm;56817;52.302;4.844;2022-12-07T00:52:59;39.77;34.69;44.02;;
69611;Laerm;56817;52.302;4.844;2022-12-07T00:53:09;41.25;36.96;47.67;;
69611;Laerm;56817;52.302;4.844;2022-12-07T00:53:19;42.18;36.43;46.88;;
69611;Laerm;56817;52.302;4.844;2022-12-07T00:53:30;40.98;38.62;45.56;;
69611;Laerm;56817;52.302;4.844;2022-12-07T00:53:40;43.74;37.62;47.73;;
69611;Laerm;56817;52.302;4.844;2022-12-07T00:53:51;43.37;38.05;49.36;;
69611;Laerm;56817;52.302;4.844;2022-12-07T00:54:01;39.43;34.35;47.15;;
69611;Laerm;56817;52.302;4.844;2022-12-07T00:54:12;37.97;33.53;46.01;;
69611;Laerm;56817;52.302;4.844;2022-12-07T00:54:22;40.81;37.00;46.86;;
69611;Laerm;56817;52.302;4.844;2022-12-07T00:54:32;39.78;36.21;45.53;;
69611;Laerm;56817;52.302;4.844;2022-12-07T00:54:42;40.57;35.88;45.71;;
69611;Laerm;56817;52.302;4.844;2022-12-07T00:54:53;36.68;34.97;42.21;;
69611;Laerm;56817;52.302;4.844;2022-12-07T00:55:03;37.75;35.25;42.96;;
69611;Laerm;56817;52.302;4.844;2022-12-07T00:55:13;42.73;37.43;47.33;;
69611;Laerm;56817;52.302;4.844;2022-12-07T00:55:24;46.47;43.86;50.05;;
69611;Laerm;56817;52.302;4.844;2022-12-07T00:55:34;44.49;39.97;48.93;;
69611;Laerm;56817;52.302;4.844;2022-12-07T00:55:45;47.98;41.91;52.82;;
69611;Laerm;56817;52.302;4.844;2022-12-07T00:55:55;41.38;38.34;44.97;;
69611;Laerm;56817;52.302;4.844;2022-12-07T00:56:10;39.55;37.57;44.49;;
69611;Laerm;56817;52.302;4.844;2022-12-07T00:56:22;44.46;40.70;48.19;;
69611;Laerm;56817;52.302;4.844;2022-12-07T00:56:32;46.14;41.71;49.20;;
69611;Laerm;56817;52.302;4.844;2022-12-07T00:56:43;46.04;43.30;49.11;;
69611;Laerm;56817;52.302;4.844;2022-12-07T00:56:53;43.44;38.61;48.19;;
69611;Laerm;56817;52.302;4.844;2022-12-07T00:57:04;41.76;37.92;48.19;;
69611;Laerm;56817;52.302;4.844;2022-12-07T00:57:14;43.16;38.03;51.40;;
69611;Laerm;56817;52.302;4.844;2022-12-07T00:57:24;46.23;42.40;49.53;;
69611;Laerm;56817;52.302;4.844;2022-12-07T00:57:34;46.17;41.76;49.36;;
69611;Laerm;56817;52.302;4.844;2022-12-07T00:57:44;46.27;41.88;50.62;;
69611;Laerm;56817;52.302;4.844;2022-12-07T00:57:55;45.88;40.32;48.61;;
69611;Laerm;56817;52.302;4.844;2022-12-07T00:58:05;38.34;35.96;42.41;;
69611;Laerm;56817;52.302;4.844;2022-12-07T00:58:15;37.27;34.53;43.83;;
69611;Laerm;56817;52.302;4.844;2022-12-07T00:58:25;37.90;34.88;44.36;;
69611;Laerm;56817;52.302;4.844;2022-12-07T00:58:36;40.21;35.49;46.75;;
69611;Laerm;56817;52.302;4.844;2022-12-07T00:58:52;40.21;35.24;44.70;;
69611;Laerm;56817;52.302;4.844;2022-12-07T00:59:03;40.59;35.38;46.98;;
69611;Laerm;56817;52.302;4.844;2022-12-07T00:59:13;41.19;36.50;47.21;;
69611;Laerm;56817;52.302;4.844;2022-12-07T00:59:25;45.09;40.79;57.56;;
69611;Laerm;56817;52.302;4.844;2022-12-07T00:59:35;44.46;40.84;47.25;;
69611;Laerm;56817;52.302;4.844;2022-12-07T00:59:45;43.01;39.58;45.78;;
69611;Laerm;56817;52.302;4.844;2022-12-07T00:59:55;42.36;38.75;46.20;;
69611;Laerm;56817;52.302;4.844;2022-12-07T01:00:07;42.95;36.18;46.79;;
69611;Laerm;56817;52.302;4.844;2022-12-07T01:00:18;39.03;35.57;42.89;;
69611;Laerm;56817;52.302;4.844;2022-12-07T01:00:28;42.15;38.01;45.89;;
69611;Laerm;56817;52.302;4.844;2022-12-07T01:00:39;39.31;35.95;45.63;;